マガダン の空港の天気 - METARとTAF

マガダン・ソコル空港 ( UHMM / GDX ) - ロシア マガダン
飛行場実況気象(Metar)
観測時間10/18 14:30 MAGT (10/18 03:30 UTC)
風向・風速東 4m/s
視程10km以上
天気現象
少しの雲 雲底高度 1220m
気温4℃
湿度56%
気圧1006hPa
METARUHMM 180330Z 09004MPS 9999 FEW040 04/M04 Q1006 R10/70D NOSIG RMK QFE740
過去の天気等 Google飛行場航空写真 Wunderground天気予報

過去48時間のMETAR

飛行場予報(TAF)
発表時間: 10/18 12:50 MAGT (10/18 01:50 UTC)
予報対象時間: 18日14時 MAGT ~ 19日20時 MAGT
風向・風速東南東 3m/s 瞬間風速 10m/s
視程10km以上
なし
18日23時 MAGT ~ 19日1時 MAGT に徐々に
風向・風速北 3m/s
19日10時 MAGT から
風向・風速北 3m/s 瞬間風速 12m/s
視程10km以上
全天の4割程度の積乱雲 雲底高度 910m
全天の8割程度の雲 雲底高度 2130m
19日12時 MAGT ~ 19日20時 MAGT に一時的に
視程3100m
天気現象弱いしゅう雪
全天の4割程度の雲 雲底高度 340m
全天を覆う積乱雲 雲底高度 760m
TAF UHMM 180150Z 1803/1909 11003G10MPS 9999 NSC
BECMG 1812/1814 01003MPS
FM182300 01003G12MPS 9999 SCT030CB BKN070
TEMPO 1901/1909 3100 -SHSN SCT011 OVC025CB